Time;durP1;ratioP1;P1;durP2;ratioP2;P2;SDS_P1;SDS_P2;PMS_P1;PMS_P2;Temp;Humidity;BMP_temperature;BMP_pressure;BME280_temperature;BME280_humidity;BME280_pressure;Samples;Min_cycle;Max_cycle;Signal;HPM_P1;HPM_P2
2021/12/30 00:02:00;;;;;;;;;;;12.10;89.50;;;;;;5040255;28;19967;-81
2021/12/30 00:04:26;;;;;;;;;;;12.10;89.30;;;;;;5018072;28;19974;-82
2021/12/30 00:06:52;;;;;;;;;;;12.10;89.70;;;;;;5025977;28;19980;-82
2021/12/30 00:09:20;;;;;;;;;;;12.10;89.60;;;;;;5033087;28;19924;-82
2021/12/30 00:11:46;;;;;;;;;;;12.00;89.80;;;;;;5037390;28;19949;-82
2021/12/30 00:14:12;;;;;;;;;;;12.10;89.40;;;;;;5036841;28;19920;-82
2021/12/30 00:16:40;;;;;;;;;;;12.10;89.20;;;;;;5056010;28;19912;-83
2021/12/30 00:19:06;;;;;;;;;;;12.10;89.40;;;;;;5032828;28;19955;-82
2021/12/30 00:21:32;;;;;;;;;;;12.10;88.90;;;;;;5017676;28;19913;-82
2021/12/30 00:23:57;;;;;;;;;;;12.10;88.80;;;;;;5053690;28;20525;-82
2021/12/30 00:26:23;;;;;;;;;;;12.10;89.00;;;;;;5053971;28;19908;-82
2021/12/30 00:28:48;;;;;;;;;;;12.00;89.40;;;;;;5037162;28;19913;-82
2021/12/30 00:31:15;;;;;;;;;;;12.00;88.90;;;;;;5035566;28;19966;-81
2021/12/30 00:33:40;;;;;;;;;;;12.00;88.90;;;;;;5073616;28;20004;-81
2021/12/30 00:36:07;;;;;;;;;;;12.00;89.10;;;;;;5049330;28;19901;-81
2021/12/30 00:38:36;;;;;;;;;;;12.00;89.30;;;;;;5067112;28;19924;-81
2021/12/30 00:41:02;;;;;;;;;;;12.00;88.80;;;;;;5049449;28;19936;-83
2021/12/30 00:43:28;;;;;;;;;;;12.00;88.70;;;;;;5051852;28;19943;-82
2021/12/30 00:45:53;;;;;;;;;;;12.00;89.00;;;;;;5058906;28;19941;-82
2021/12/30 00:48:19;;;;;;;;;;;11.90;89.20;;;;;;5029939;28;19924;-83
2021/12/30 00:50:45;;;;;;;;;;;11.80;89.30;;;;;;5053303;28;19913;-82
2021/12/30 00:53:11;;;;;;;;;;;11.80;89.50;;;;;;5042858;28;19963;-82
2021/12/30 00:55:37;;;;;;;;;;;11.80;89.40;;;;;;5035386;28;20245;-82
2021/12/30 00:58:03;;;;;;;;;;;11.80;89.40;;;;;;5029304;28;19913;-83
2021/12/30 01:00:29;;;;;;;;;;;11.80;89.50;;;;;;5042438;28;19913;-83
2021/12/30 01:02:54;;;;;;;;;;;11.80;89.40;;;;;;5036017;28;19924;-83
2021/12/30 01:05:20;;;;;;;;;;;11.80;89.50;;;;;;5059015;28;20273;-84
2021/12/30 01:07:46;;;;;;;;;;;11.80;89.50;;;;;;5060547;28;19913;-84
2021/12/30 01:10:13;;;;;;;;;;;11.80;89.40;;;;;;5037902;28;19909;-83
2021/12/30 01:12:39;;;;;;;;;;;11.80;89.30;;;;;;5060554;28;20250;-84
2021/12/30 01:15:10;;;;;;;;;;;11.90;89.40;;;;;;5042595;28;19924;-84
2021/12/30 01:17:46;;;;;;;;;;;11.90;89.50;;;;;;5060321;28;19913;-84
2021/12/30 01:20:14;;;;;;;;;;;11.90;89.30;;;;;;5057063;28;20062;-84
2021/12/30 01:22:39;;;;;;;;;;;11.90;89.20;;;;;;5040823;28;19913;-85
2021/12/30 01:25:07;;;;;;;;;;;11.80;89.60;;;;;;5041076;28;20297;-84
2021/12/30 01:27:40;;;;;;;;;;;12.00;89.50;;;;;;5032538;28;19920;-84
2021/12/30 01:30:10;;;;;;;;;;;12.00;89.20;;;;;;5036003;28;19971;-85
2021/12/30 01:32:36;;;;;;;;;;;12.00;89.10;;;;;;5045258;28;20017;-85
2021/12/30 01:35:04;;;;;;;;;;;11.90;89.30;;;;;;5020350;28;20008;-83
2021/12/30 01:37:30;;;;;;;;;;;11.90;89.10;;;;;;5049114;28;19913;-85
2021/12/30 01:39:55;;;;;;;;;;;11.90;89.20;;;;;;5029720;28;20016;-85
2021/12/30 01:42:22;;;;;;;;;;;11.90;89.20;;;;;;5021527;28;19917;-85
2021/12/30 01:44:48;;;;;;;;;;;11.90;89.50;;;;;;5038408;28;19936;-84
2021/12/30 01:47:14;;;;;;;;;;;12.00;89.30;;;;;;5019118;28;19920;-84
2021/12/30 01:49:47;;;;;;;;;;;12.00;89.30;;;;;;5056740;28;19908;-85
2021/12/30 01:52:12;;;;;;;;;;;12.00;89.30;;;;;;5036402;28;19925;-85
2021/12/30 01:54:38;;;;;;;;;;;12.00;89.50;;;;;;5032143;28;20355;-84
2021/12/30 01:57:05;;;;;;;;;;;12.00;89.30;;;;;;5040726;28;19909;-85
2021/12/30 01:59:30;;;;;;;;;;;12.00;89.30;;;;;;5058289;28;19916;-84
2021/12/30 02:01:57;;;;;;;;;;;12.00;89.30;;;;;;5058830;28;19975;-85
2021/12/30 02:04:26;;;;;;;;;;;12.00;89.30;;;;;;5039943;28;19909;-85
2021/12/30 02:06:52;;;;;;;;;;;12.10;89.30;;;;;;5039352;28;19920;-84
2021/12/30 02:09:19;;;;;;;;;;;12.00;89.40;;;;;;5059039;28;20023;-83
2021/12/30 02:11:45;;;;;;;;;;;12.10;89.40;;;;;;5059977;28;19925;-86
2021/12/30 02:14:14;;;;;;;;;;;12.10;89.30;;;;;;5059609;28;19986;-85
2021/12/30 02:16:40;;;;;;;;;;;12.00;89.40;;;;;;5059886;28;19908;-85
2021/12/30 02:19:05;;;;;;;;;;;12.10;89.40;;;;;;5057861;28;19958;-84
2021/12/30 02:21:31;;;;;;;;;;;12.10;89.20;;;;;;5048243;28;19917;-85
2021/12/30 02:23:59;;;;;;;;;;;12.10;89.20;;;;;;5041495;28;19974;-83
2021/12/30 02:26:25;;;;;;;;;;;12.10;89.10;;;;;;5026195;28;19913;-85
2021/12/30 02:28:50;;;;;;;;;;;12.10;89.50;;;;;;5025959;28;20015;-85
2021/12/30 02:31:19;;;;;;;;;;;12.10;89.30;;;;;;5037007;28;19913;-85
2021/12/30 02:33:45;;;;;;;;;;;12.10;89.30;;;;;;5044714;28;19921;-83
2021/12/30 02:36:11;;;;;;;;;;;12.10;89.40;;;;;;5025013;28;19931;-84
2021/12/30 02:38:37;;;;;;;;;;;12.10;89.40;;;;;;5053675;28;20361;-85
2021/12/30 02:41:03;;;;;;;;;;;12.10;89.50;;;;;;5052167;28;19924;-84
2021/12/30 02:43:31;;;;;;;;;;;12.10;89.70;;;;;;5029757;28;19913;-86
2021/12/30 02:45:58;;;;;;;;;;;12.00;89.90;;;;;;5034787;28;19912;-84
2021/12/30 02:48:28;;;;;;;;;;;12.10;89.90;;;;;;5056898;28;19915;-84
2021/12/30 02:50:55;;;;;;;;;;;12.10;89.80;;;;;;5041497;28;19909;-86
2021/12/30 02:53:21;;;;;;;;;;;12.10;89.60;;;;;;5056062;28;20004;-85
2021/12/30 02:55:48;;;;;;;;;;;12.10;89.70;;;;;;5031399;28;19962;-85
2021/12/30 02:58:14;;;;;;;;;;;12.10;89.80;;;;;;5030702;28;19921;-85
2021/12/30 03:00:41;;;;;;;;;;;12.10;89.70;;;;;;5050576;28;19921;-85
2021/12/30 03:03:06;;;;;;;;;;;12.10;89.70;;;;;;5037154;28;19952;-85
2021/12/30 03:05:34;;;;;;;;;;;12.20;89.60;;;;;;5026469;28;20392;-85
2021/12/30 03:08:00;;;;;;;;;;;12.30;89.60;;;;;;5036408;28;19988;-85
2021/12/30 03:10:27;;;;;;;;;;;12.30;89.30;;;;;;5037740;28;20512;-82
2021/12/30 03:12:56;;;;;;;;;;;12.30;89.40;;;;;;5022917;28;19963;-82
2021/12/30 03:15:23;;;;;;;;;;;12.20;89.50;;;;;;5024632;28;19979;-83
2021/12/30 03:17:48;;;;;;;;;;;12.10;90.20;;;;;;5031041;28;19913;-85
2021/12/30 03:20:14;;;;;;;;;;;12.10;90.50;;;;;;5040858;28;19943;-85
2021/12/30 03:22:40;;;;;;;;;;;12.10;90.70;;;;;;5017788;28;19928;-84
2021/12/30 03:25:07;;;;;;;;;;;12.10;90.60;;;;;;5039623;28;19913;-83
2021/12/30 03:27:33;;;;;;;;;;;12.10;90.90;;;;;;5056812;28;19928;-84
2021/12/30 03:29:59;;;;;;;;;;;12.10;91.00;;;;;;5040757;28;20273;-84
2021/12/30 03:32:24;;;;;;;;;;;12.10;91.10;;;;;;5030974;28;19920;-84
2021/12/30 03:34:50;;;;;;;;;;;12.00;91.50;;;;;;5042300;28;19915;-85
2021/12/30 03:37:16;;;;;;;;;;;12.10;91.50;;;;;;5059450;28;19909;-84
2021/12/30 03:39:41;;;;;;;;;;;12.20;91.50;;;;;;5060748;28;19909;-83
2021/12/30 03:42:07;;;;;;;;;;;12.20;91.50;;;;;;5044078;28;19962;-84
2021/12/30 03:44:33;;;;;;;;;;;12.10;91.80;;;;;;5045569;28;19980;-83
2021/12/30 03:46:58;;;;;;;;;;;12.10;92.00;;;;;;5063225;28;19913;-83
2021/12/30 03:49:24;;;;;;;;;;;12.10;92.10;;;;;;5050135;28;19917;-82
2021/12/30 03:51:52;;;;;;;;;;;12.10;92.10;;;;;;5057133;28;19931;-82
2021/12/30 03:54:17;;;;;;;;;;;12.10;92.00;;;;;;5045254;28;20360;-84
2021/12/30 03:56:43;;;;;;;;;;;12.20;92.00;;;;;;5039740;28;19909;-83
2021/12/30 03:59:09;;;;;;;;;;;12.20;92.00;;;;;;5058277;28;19912;-83
2021/12/30 04:01:34;;;;;;;;;;;12.20;92.00;;;;;;5061331;28;19917;-83
2021/12/30 04:04:00;;;;;;;;;;;12.20;92.20;;;;;;5042358;28;20016;-84
2021/12/30 04:06:27;;;;;;;;;;;12.20;92.40;;;;;;5045380;28;19963;-83
2021/12/30 04:08:54;;;;;;;;;;;12.20;92.40;;;;;;5050127;28;19928;-83
2021/12/30 04:11:21;;;;;;;;;;;12.30;92.30;;;;;;5036459;28;19999;-85
2021/12/30 04:13:47;;;;;;;;;;;12.30;92.20;;;;;;5015678;28;19913;-84
2021/12/30 04:16:12;;;;;;;;;;;12.40;92.10;;;;;;5040685;28;20320;-85
2021/12/30 04:18:38;;;;;;;;;;;12.40;91.80;;;;;;5044331;28;20440;-83
2021/12/30 04:21:03;;;;;;;;;;;12.40;91.90;;;;;;5033409;28;19909;-83
2021/12/30 04:23:29;;;;;;;;;;;12.50;92.00;;;;;;5032950;28;19909;-83
2021/12/30 04:25:55;;;;;;;;;;;12.50;92.10;;;;;;5032307;28;20034;-84
2021/12/30 04:28:20;;;;;;;;;;;12.50;92.10;;;;;;5033364;28;19936;-84
2021/12/30 04:30:46;;;;;;;;;;;12.50;92.10;;;;;;5034169;28;19909;-84
2021/12/30 04:33:11;;;;;;;;;;;12.60;91.90;;;;;;5032467;28;20016;-84
2021/12/30 04:35:37;;;;;;;;;;;12.50;91.90;;;;;;5015062;28;19909;-84
2021/12/30 04:38:03;;;;;;;;;;;12.50;91.90;;;;;;5014610;28;19981;-84
2021/12/30 04:40:28;;;;;;;;;;;12.50;92.10;;;;;;5014743;28;19909;-84
2021/12/30 04:42:54;;;;;;;;;;;12.60;92.50;;;;;;5032512;28;19939;-84
2021/12/30 04:45:20;;;;;;;;;;;12.60;92.40;;;;;;5025173;28;19971;-84
2021/12/30 04:47:45;;;;;;;;;;;12.50;92.40;;;;;;5034101;28;19920;-85
2021/12/30 04:50:12;;;;;;;;;;;12.60;92.60;;;;;;5033720;28;19915;-84
2021/12/30 04:52:38;;;;;;;;;;;12.60;92.60;;;;;;5032499;28;19924;-85
2021/12/30 04:55:03;;;;;;;;;;;12.60;92.80;;;;;;5052091;28;20289;-84
2021/12/30 04:57:29;;;;;;;;;;;12.60;92.60;;;;;;5043825;28;19908;-84
2021/12/30 04:59:54;;;;;;;;;;;12.60;92.50;;;;;;5026999;28;19909;-84
2021/12/30 05:02:21;;;;;;;;;;;12.50;92.80;;;;;;5024428;28;19909;-84
2021/12/30 05:04:47;;;;;;;;;;;12.50;92.90;;;;;;5040595;28;19913;-84
2021/12/30 05:07:12;;;;;;;;;;;12.60;93.00;;;;;;5023284;28;20376;-84
2021/12/30 05:09:37;;;;;;;;;;;12.60;92.90;;;;;;5037987;28;19909;-82
2021/12/30 05:12:03;;;;;;;;;;;12.60;93.00;;;;;;5038719;28;19917;-83
2021/12/30 05:14:29;;;;;;;;;;;12.60;92.80;;;;;;5020312;28;19917;-83
2021/12/30 05:16:56;;;;;;;;;;;12.60;93.00;;;;;;5025098;28;19914;-87
2021/12/30 05:19:21;;;;;;;;;;;12.60;93.20;;;;;;5039333;28;19913;-84
2021/12/30 05:21:46;;;;;;;;;;;12.60;93.10;;;;;;5040258;28;19932;-85
2021/12/30 05:24:12;;;;;;;;;;;12.60;93.10;;;;;;5052979;28;20196;-84
2021/12/30 05:26:37;;;;;;;;;;;12.60;93.10;;;;;;5030979;28;19908;-85
2021/12/30 05:29:06;;;;;;;;;;;12.60;93.00;;;;;;5043234;28;19940;-83
2021/12/30 05:31:31;;;;;;;;;;;12.70;93.10;;;;;;5031522;28;19917;-84
2021/12/30 05:33:57;;;;;;;;;;;12.70;93.10;;;;;;5041494;28;19909;-85
2021/12/30 05:36:22;;;;;;;;;;;12.60;93.20;;;;;;5041550;28;19912;-84
2021/12/30 05:38:48;;;;;;;;;;;12.80;93.00;;;;;;5039521;28;19909;-83
2021/12/30 05:41:13;;;;;;;;;;;12.80;93.10;;;;;;5062955;28;20418;-83
2021/12/30 05:43:39;;;;;;;;;;;12.80;93.20;;;;;;5063271;28;19924;-83
2021/12/30 05:46:04;;;;;;;;;;;12.70;93.10;;;;;;5026211;28;19913;-83
2021/12/30 05:48:30;;;;;;;;;;;12.70;93.20;;;;;;5025554;28;19940;-83
2021/12/30 05:50:59;;;;;;;;;;;12.80;93.40;;;;;;5043013;28;19909;-83
2021/12/30 05:53:26;;;;;;;;;;;12.70;93.30;;;;;;5026048;28;20070;-83
2021/12/30 05:55:52;;;;;;;;;;;12.70;93.50;;;;;;5027806;28;20175;-83
2021/12/30 05:58:17;;;;;;;;;;;12.70;93.80;;;;;;5045922;28;19916;-82
2021/12/30 06:00:44;;;;;;;;;;;12.70;93.70;;;;;;5064230;28;19920;-82
2021/12/30 06:03:09;;;;;;;;;;;12.70;93.70;;;;;;5047054;28;19940;-83
2021/12/30 06:05:35;;;;;;;;;;;12.70;93.70;;;;;;5046932;28;20337;-83
2021/12/30 06:08:00;;;;;;;;;;;12.70;93.80;;;;;;5064240;28;19976;-83
2021/12/30 06:10:26;;;;;;;;;;;12.80;93.80;;;;;;5065647;28;19908;-83
2021/12/30 06:12:51;;;;;;;;;;;12.80;93.50;;;;;;5048845;28;19924;-82
2021/12/30 06:15:16;;;;;;;;;;;12.90;93.30;;;;;;5033049;28;19921;-83
2021/12/30 06:17:42;;;;;;;;;;;12.80;93.20;;;;;;5028884;28;20587;-82
2021/12/30 06:20:09;;;;;;;;;;;12.80;93.30;;;;;;5039083;28;19968;-82
2021/12/30 06:22:35;;;;;;;;;;;12.80;93.60;;;;;;5073465;28;19913;-82
2021/12/30 06:25:02;;;;;;;;;;;12.80;93.60;;;;;;5056165;28;19948;-83
2021/12/30 06:27:28;;;;;;;;;;;12.80;93.60;;;;;;5070763;28;19896;-84
2021/12/30 06:29:53;;;;;;;;;;;12.80;93.50;;;;;;5032643;28;19909;-83
2021/12/30 06:32:19;;;;;;;;;;;12.90;93.60;;;;;;5033700;28;19916;-83
2021/12/30 06:34:44;;;;;;;;;;;12.90;93.80;;;;;;5034277;28;19978;-84
2021/12/30 06:37:11;;;;;;;;;;;12.90;93.70;;;;;;5033305;28;19960;-83
2021/12/30 06:39:37;;;;;;;;;;;13.00;93.80;;;;;;5032783;28;20004;-84
2021/12/30 06:42:02;;;;;;;;;;;12.90;93.70;;;;;;5052931;28;19967;-83
2021/12/30 06:44:28;;;;;;;;;;;13.00;93.80;;;;;;5057658;28;19927;-82
2021/12/30 06:46:59;;;;;;;;;;;12.90;93.80;;;;;;5057495;28;19901;-83
2021/12/30 06:49:25;;;;;;;;;;;13.00;94.00;;;;;;5056242;28;19979;-84
2021/12/30 06:51:51;;;;;;;;;;;13.00;93.80;;;;;;5041084;28;19913;-83
2021/12/30 06:54:17;;;;;;;;;;;13.10;93.90;;;;;;5036128;28;20187;-83
2021/12/30 06:56:43;;;;;;;;;;;13.10;93.70;;;;;;5054014;28;20381;-83
2021/12/30 06:59:14;;;;;;;;;;;13.10;93.80;;;;;;5016841;28;19948;-84
2021/12/30 07:01:40;;;;;;;;;;;13.10;93.70;;;;;;5019872;28;19995;-84
2021/12/30 07:04:05;;;;;;;;;;;13.20;93.80;;;;;;5041822;28;20297;-83
2021/12/30 07:06:31;;;;;;;;;;;13.30;93.70;;;;;;5037557;28;19910;-84
2021/12/30 07:08:56;;;;;;;;;;;13.10;93.70;;;;;;5018902;28;20010;-83
2021/12/30 07:11:22;;;;;;;;;;;13.20;93.90;;;;;;5038468;28;19913;-83
2021/12/30 07:13:47;;;;;;;;;;;13.20;94.00;;;;;;5018944;28;20355;-83
2021/12/30 07:16:12;;;;;;;;;;;13.20;93.90;;;;;;5022886;28;20000;-83
2021/12/30 07:18:38;;;;;;;;;;;13.30;93.90;;;;;;5018760;28;19909;-83
2021/12/30 07:21:03;;;;;;;;;;;13.30;93.80;;;;;;5022113;28;19909;-82
2021/12/30 07:23:29;;;;;;;;;;;13.30;93.80;;;;;;5038579;28;19913;-83
2021/12/30 07:25:54;;;;;;;;;;;13.40;94.00;;;;;;5040743;28;19920;-84
2021/12/30 07:28:20;;;;;;;;;;;13.40;93.80;;;;;;5041657;28;19915;-83
2021/12/30 07:30:45;;;;;;;;;;;13.40;93.90;;;;;;5059884;28;19909;-84
2021/12/30 07:33:11;;;;;;;;;;;13.40;93.80;;;;;;5042018;28;19924;-84
2021/12/30 07:35:36;;;;;;;;;;;13.50;93.80;;;;;;5060175;28;19912;-83
2021/12/30 07:38:02;;;;;;;;;;;13.50;93.70;;;;;;5059661;28;20325;-84
2021/12/30 07:40:28;;;;;;;;;;;13.60;93.40;;;;;;5061804;28;20269;-83
2021/12/30 07:42:53;;;;;;;;;;;13.50;93.40;;;;;;5032805;28;19920;-83
2021/12/30 07:45:19;;;;;;;;;;;13.40;93.50;;;;;;5042444;28;19913;-83
2021/12/30 07:47:45;;;;;;;;;;;13.60;93.60;;;;;;5024532;28;20028;-81
2021/12/30 07:50:12;;;;;;;;;;;13.50;93.50;;;;;;5023492;28;19988;-83
2021/12/30 07:52:37;;;;;;;;;;;13.60;93.40;;;;;;5043040;28;19921;-83
2021/12/30 07:55:04;;;;;;;;;;;13.60;93.30;;;;;;5026934;28;19909;-83
2021/12/30 07:57:29;;;;;;;;;;;13.60;93.30;;;;;;5060464;28;19931;-84
2021/12/30 07:59:55;;;;;;;;;;;13.60;93.20;;;;;;5045825;28;19909;-83
2021/12/30 08:02:21;;;;;;;;;;;13.60;93.40;;;;;;5068096;28;19970;-82
2021/12/30 08:04:46;;;;;;;;;;;13.60;93.30;;;;;;5051964;28;19917;-83
2021/12/30 08:07:13;;;;;;;;;;;13.60;93.40;;;;;;5048324;28;19967;-83
2021/12/30 08:09:39;;;;;;;;;;;13.60;93.40;;;;;;5037894;28;19920;-83
2021/12/30 08:12:04;;;;;;;;;;;13.60;93.50;;;;;;5047419;28;19993;-84
2021/12/30 08:14:30;;;;;;;;;;;13.60;93.40;;;;;;5051171;28;19905;-82
2021/12/30 08:16:56;;;;;;;;;;;13.60;93.50;;;;;;5052991;28;19897;-81
2021/12/30 08:19:21;;;;;;;;;;;13.50;93.60;;;;;;5068959;28;19909;-83
2021/12/30 08:21:47;;;;;;;;;;;13.50;93.60;;;;;;5032084;28;19943;-83
2021/12/30 08:24:13;;;;;;;;;;;13.50;93.70;;;;;;5035462;28;19913;-82
2021/12/30 08:26:39;;;;;;;;;;;13.50;93.80;;;;;;5030768;28;19988;-83
2021/12/30 08:29:05;;;;;;;;;;;13.50;93.50;;;;;;5037080;28;19909;-82
2021/12/30 08:31:32;;;;;;;;;;;13.60;93.60;;;;;;5057535;28;19909;-83
2021/12/30 08:33:57;;;;;;;;;;;13.60;93.60;;;;;;5041927;28;19909;-83
2021/12/30 08:36:23;;;;;;;;;;;13.60;93.50;;;;;;5049822;28;20363;-83
2021/12/30 08:38:48;;;;;;;;;;;13.60;93.50;;;;;;5041255;28;19920;-83
2021/12/30 08:41:15;;;;;;;;;;;13.60;93.50;;;;;;5056396;28;20328;-83
2021/12/30 08:43:40;;;;;;;;;;;13.60;93.30;;;;;;5023216;28;20000;-83
2021/12/30 08:46:06;;;;;;;;;;;13.60;93.60;;;;;;5031002;28;20400;-83
2021/12/30 08:48:31;;;;;;;;;;;13.60;93.50;;;;;;5060036;28;19935;-82
2021/12/30 08:50:57;;;;;;;;;;;13.60;93.60;;;;;;5041624;28;19909;-83
2021/12/30 08:53:25;;;;;;;;;;;13.50;93.70;;;;;;5059906;28;20159;-83
2021/12/30 08:55:54;;;;;;;;;;;13.60;93.80;;;;;;5043732;28;19917;-83
2021/12/30 08:58:19;;;;;;;;;;;13.60;93.60;;;;;;5045547;28;19944;-83
2021/12/30 09:00:47;;;;;;;;;;;13.60;93.80;;;;;;5060836;28;19909;-82
2021/12/30 09:03:13;;;;;;;;;;;13.60;93.70;;;;;;5042872;28;19923;-83
2021/12/30 09:05:39;;;;;;;;;;;13.60;93.50;;;;;;5063205;28;20007;-82
2021/12/30 09:08:05;;;;;;;;;;;13.70;93.60;;;;;;5062280;28;19919;-83
2021/12/30 09:10:34;;;;;;;;;;;13.60;93.60;;;;;;5062206;28;19909;-82
2021/12/30 09:13:00;;;;;;;;;;;13.70;93.60;;;;;;5063034;28;20345;-83
2021/12/30 09:15:26;;;;;;;;;;;13.60;93.50;;;;;;5051159;28;19917;-83
2021/12/30 09:17:52;;;;;;;;;;;13.60;93.40;;;;;;5035216;28;20218;-82
2021/12/30 09:20:18;;;;;;;;;;;13.70;93.60;;;;;;5028560;28;19993;-85
2021/12/30 09:22:44;;;;;;;;;;;13.70;93.30;;;;;;5041641;28;19909;-82
2021/12/30 09:25:09;;;;;;;;;;;13.70;93.20;;;;;;5041536;28;19919;-82
2021/12/30 09:27:36;;;;;;;;;;;13.70;93.20;;;;;;5044802;28;19913;-82
2021/12/30 09:30:02;;;;;;;;;;;13.70;93.20;;;;;;5061758;28;19927;-83
2021/12/30 09:32:28;;;;;;;;;;;13.60;93.40;;;;;;5047816;28;20417;-83
2021/12/30 09:34:53;;;;;;;;;;;13.60;93.40;;;;;;5046696;28;20392;-83
2021/12/30 09:37:19;;;;;;;;;;;13.70;93.30;;;;;;5053130;28;19909;-83
2021/12/30 09:39:44;;;;;;;;;;;13.80;93.10;;;;;;5045862;28;19912;-82
2021/12/30 09:42:10;;;;;;;;;;;13.80;93.10;;;;;;5059150;28;19958;-83
2021/12/30 09:44:36;;;;;;;;;;;13.80;93.20;;;;;;5023786;28;19960;-82
2021/12/30 09:47:02;;;;;;;;;;;13.70;93.20;;;;;;5042083;28;19913;-82
2021/12/30 09:49:28;;;;;;;;;;;13.90;93.00;;;;;;5023439;28;19916;-82
2021/12/30 09:51:53;;;;;;;;;;;13.90;93.10;;;;;;5043414;28;19913;-82
2021/12/30 09:54:19;;;;;;;;;;;14.00;92.90;;;;;;5042503;28;20005;-83
2021/12/30 09:56:45;;;;;;;;;;;14.00;92.90;;;;;;5048483;28;19913;-83
2021/12/30 09:59:11;;;;;;;;;;;14.00;92.60;;;;;;5042648;28;19939;-82
2021/12/30 10:01:37;;;;;;;;;;;14.00;92.40;;;;;;5042953;28;19913;-83
2021/12/30 10:04:04;;;;;;;;;;;14.10;92.30;;;;;;5039962;28;20390;-83
2021/12/30 10:06:30;;;;;;;;;;;14.10;92.20;;;;;;5040435;28;20378;-82
2021/12/30 10:09:00;;;;;;;;;;;14.10;91.90;;;;;;5035624;28;19948;-83
2021/12/30 10:11:25;;;;;;;;;;;14.20;91.80;;;;;;5041979;28;20007;-82
2021/12/30 10:13:52;;;;;;;;;;;14.20;91.80;;;;;;5055546;28;19956;-82
2021/12/30 10:16:18;;;;;;;;;;;14.20;91.70;;;;;;5023258;28;20388;-82
2021/12/30 10:18:50;;;;;;;;;;;14.30;91.40;;;;;;5018534;28;19917;-83
2021/12/30 10:21:18;;;;;;;;;;;14.20;91.30;;;;;;5033267;28;19996;-81
2021/12/30 10:23:44;;;;;;;;;;;14.20;91.20;;;;;;5036436;28;19908;-82
2021/12/30 10:26:10;;;;;;;;;;;14.20;91.10;;;;;;5036059;28;19987;-82
2021/12/30 10:28:37;;;;;;;;;;;14.30;91.20;;;;;;5024530;28;19996;-82
2021/12/30 10:31:11;;;;;;;;;;;14.30;90.90;;;;;;5021238;28;20404;-82
2021/12/30 10:33:45;;;;;;;;;;;14.30;91.00;;;;;;5023492;28;19940;-82
2021/12/30 10:36:19;;;;;;;;;;;14.30;90.80;;;;;;5041659;28;20140;-82
2021/12/30 10:38:45;;;;;;;;;;;14.30;90.90;;;;;;5022154;28;19913;-83
2021/12/30 10:41:10;;;;;;;;;;;14.20;90.90;;;;;;5040159;28;20011;-83
2021/12/30 10:46:25;;;;;;;;;;;14.20;90.80;;;;;;5060067;28;20301;-83
2021/12/30 10:48:50;;;;;;;;;;;14.20;90.60;;;;;;5059548;28;19991;-82
2021/12/30 10:51:16;;;;;;;;;;;14.20;90.70;;;;;;5045407;28;20182;-82
2021/12/30 10:53:41;;;;;;;;;;;14.30;90.50;;;;;;5040657;28;19991;-82
2021/12/30 10:56:20;;;;;;;;;;;14.30;90.20;;;;;;5023361;28;19909;-84
2021/12/30 10:58:46;;;;;;;;;;;14.40;90.20;;;;;;5040597;28;19978;-80
2021/12/30 11:01:16;;;;;;;;;;;14.50;89.90;;;;;;5023009;28;19909;-82
2021/12/30 11:03:42;;;;;;;;;;;14.50;89.70;;;;;;5035942;28;20015;-83
2021/12/30 11:06:17;;;;;;;;;;;14.50;89.60;;;;;;5033786;28;19990;-83
2021/12/30 11:08:43;;;;;;;;;;;14.40;89.80;;;;;;5033682;28;19909;-82
2021/12/30 11:11:41;;;;;;;;;;;14.50;89.60;;;;;;5041769;28;19915;-83
2021/12/30 11:14:11;;;;;;;;;;;14.50;89.80;;;;;;4997425;28;19925;-83
2021/12/30 11:17:00;;;;;;;;;;;14.50;89.40;;;;;;5067452;28;19982;-83
2021/12/30 11:19:29;;;;;;;;;;;14.60;89.10;;;;;;5048693;28;20360;-84
2021/12/30 11:21:57;;;;;;;;;;;14.60;89.00;;;;;;5047675;28;19912;-84
2021/12/30 11:24:24;;;;;;;;;;;14.60;88.70;;;;;;5045048;28;19908;-84
2021/12/30 11:26:52;;;;;;;;;;;14.60;88.60;;;;;;5064424;28;19909;-83
2021/12/30 11:29:24;;;;;;;;;;;14.70;88.10;;;;;;5058316;28;20619;-86
2021/12/30 11:31:50;;;;;;;;;;;14.70;88.40;;;;;;5040956;28;19909;-82
2021/12/30 11:34:16;;;;;;;;;;;14.60;88.10;;;;;;5043112;28;20292;-82
2021/12/30 11:36:42;;;;;;;;;;;14.60;88.30;;;;;;5043506;28;19974;-82
2021/12/30 11:39:15;;;;;;;;;;;14.60;88.10;;;;;;5033121;28;19913;-85
2021/12/30 11:41:43;;;;;;;;;;;14.70;88.00;;;;;;5038784;28;19925;-84
2021/12/30 11:44:09;;;;;;;;;;;14.70;88.10;;;;;;5021367;28;19967;-83
2021/12/30 11:46:37;;;;;;;;;;;14.80;87.80;;;;;;5021699;28;19925;-83
2021/12/30 11:49:04;;;;;;;;;;;14.70;87.90;;;;;;5021587;28;19923;-84
2021/12/30 11:51:41;;;;;;;;;;;14.70;87.80;;;;;;5023127;28;19909;-83
2021/12/30 11:54:25;;;;;;;;;;;14.80;87.70;;;;;;5023672;28;20077;-83
2021/12/30 11:57:09;;;;;;;;;;;14.80;87.70;;;;;;5042297;28;19931;-83
2021/12/30 11:59:39;;;;;;;;;;;14.90;87.40;;;;;;5018025;28;19960;-84
2021/12/30 12:02:23;;;;;;;;;;;14.90;87.10;;;;;;5018633;28;20325;-84
2021/12/30 12:04:49;;;;;;;;;;;14.80;87.10;;;;;;5037015;28;19955;-84
2021/12/30 12:07:14;;;;;;;;;;;14.70;87.30;;;;;;5039236;28;19932;-83
2021/12/30 12:09:40;;;;;;;;;;;14.70;87.20;;;;;;5065257;28;19897;-83
2021/12/30 12:12:07;;;;;;;;;;;14.60;87.30;;;;;;5053199;28;19981;-83
2021/12/30 12:14:39;;;;;;;;;;;14.60;87.30;;;;;;5058993;28;19927;-82
2021/12/30 12:17:18;;;;;;;;;;;14.60;87.40;;;;;;5045103;28;19909;-81
2021/12/30 12:19:48;;;;;;;;;;;14.60;87.50;;;;;;5059944;28;19948;-82
2021/12/30 12:22:16;;;;;;;;;;;14.60;87.60;;;;;;5059040;28;19959;-82
2021/12/30 12:24:42;;;;;;;;;;;14.50;87.50;;;;;;5059348;28;19968;-82
2021/12/30 12:27:09;;;;;;;;;;;14.60;87.10;;;;;;5075197;28;19908;-84
2021/12/30 12:29:35;;;;;;;;;;;14.60;87.20;;;;;;5034371;28;19921;-83
2021/12/30 12:32:10;;;;;;;;;;;14.50;87.30;;;;;;5022258;28;20358;-83
2021/12/30 12:34:41;;;;;;;;;;;14.50;87.30;;;;;;5041743;28;20073;-83
2021/12/30 12:37:26;;;;;;;;;;;14.50;87.30;;;;;;5045683;28;19909;-83
2021/12/30 12:40:04;;;;;;;;;;;14.50;87.60;;;;;;5043719;28;19924;-83
2021/12/30 12:42:42;;;;;;;;;;;14.40;87.80;;;;;;5046157;28;19908;-82
2021/12/30 12:45:18;;;;;;;;;;;14.40;87.40;;;;;;5061248;28;19944;-83
2021/12/30 12:47:44;;;;;;;;;;;14.50;87.50;;;;;;5043130;28;19909;-84
2021/12/30 12:50:10;;;;;;;;;;;14.50;87.40;;;;;;5030261;28;19917;-83
2021/12/30 12:52:46;;;;;;;;;;;14.50;87.70;;;;;;5031902;28;19960;-83
2021/12/30 12:55:21;;;;;;;;;;;14.60;87.60;;;;;;5049077;28;20498;-80
2021/12/30 12:57:47;;;;;;;;;;;14.50;87.30;;;;;;5035584;28;19923;-82
2021/12/30 13:00:13;;;;;;;;;;;14.50;87.20;;;;;;5053207;28;19908;-82
2021/12/30 13:02:45;;;;;;;;;;;14.60;86.90;;;;;;5028378;28;19966;-82
2021/12/30 13:05:12;;;;;;;;;;;14.60;87.00;;;;;;5035376;28;19925;-82
2021/12/30 13:07:38;;;;;;;;;;;14.60;86.80;;;;;;5031145;28;19913;-85
2021/12/30 13:10:04;;;;;;;;;;;14.70;86.90;;;;;;5025314;28;20392;-81
2021/12/30 13:12:34;;;;;;;;;;;14.60;86.80;;;;;;5030640;28;20501;-82
2021/12/30 13:14:59;;;;;;;;;;;14.60;87.20;;;;;;5032204;28;19931;-80
2021/12/30 13:17:25;;;;;;;;;;;14.60;87.00;;;;;;5030363;28;19914;-82
2021/12/30 13:19:50;;;;;;;;;;;14.70;86.60;;;;;;5034917;28;19956;-82
2021/12/30 13:22:17;;;;;;;;;;;14.70;86.70;;;;;;5031422;28;19912;-81
2021/12/30 13:24:56;;;;;;;;;;;14.70;86.70;;;;;;5037736;28;20000;-85
2021/12/30 13:27:25;;;;;;;;;;;14.70;86.90;;;;;;5029490;28;20000;-84
2021/12/30 13:29:50;;;;;;;;;;;14.70;87.00;;;;;;5046543;28;20085;-82
2021/12/30 13:32:30;;;;;;;;;;;14.60;87.30;;;;;;5052413;28;19916;-79
2021/12/30 13:34:57;;;;;;;;;;;14.70;86.90;;;;;;5031825;28;19913;-83
2021/12/30 13:37:26;;;;;;;;;;;14.70;86.80;;;;;;5050771;28;19940;-83
2021/12/30 13:39:54;;;;;;;;;;;14.80;86.50;;;;;;5055979;28;19921;-81
2021/12/30 13:42:20;;;;;;;;;;;14.80;86.20;;;;;;5055377;28;20352;-82
2021/12/30 13:44:49;;;;;;;;;;;14.90;86.00;;;;;;5042243;28;19900;-83
2021/12/30 13:47:15;;;;;;;;;;;14.80;86.20;;;;;;5054937;28;19970;-83
2021/12/30 13:49:41;;;;;;;;;;;14.90;85.90;;;;;;5061733;28;19919;-82
2021/12/30 13:52:07;;;;;;;;;;;14.80;85.80;;;;;;5023012;28;19948;-82
2021/12/30 13:54:32;;;;;;;;;;;14.80;86.00;;;;;;5021878;28;19909;-82
2021/12/30 13:56:58;;;;;;;;;;;14.90;85.50;;;;;;5022550;28;20356;-82
2021/12/30 13:59:29;;;;;;;;;;;14.90;85.60;;;;;;5041558;28;19936;-83
2021/12/30 14:01:54;;;;;;;;;;;14.90;85.20;;;;;;5043141;28;19952;-83
2021/12/30 14:04:24;;;;;;;;;;;14.80;85.50;;;;;;5051416;28;19916;-81
2021/12/30 14:06:53;;;;;;;;;;;14.80;85.40;;;;;;5024428;28;19913;-83
2021/12/30 14:09:18;;;;;;;;;;;14.80;85.20;;;;;;5042552;28;20400;-82
2021/12/30 14:11:48;;;;;;;;;;;14.80;85.20;;;;;;5042023;28;19973;-82
2021/12/30 14:14:15;;;;;;;;;;;14.80;85.30;;;;;;5034975;28;19921;-84
2021/12/30 14:16:42;;;;;;;;;;;14.70;85.40;;;;;;5036125;28;19909;-81
2021/12/30 14:19:07;;;;;;;;;;;14.60;85.60;;;;;;5036280;28;19909;-82